createdAt,value
2019-03-25T00:02:58.126Z,10.49
2019-03-25T00:06:10.287Z,10.47
2019-03-25T00:07:14.682Z,10.46
2019-03-25T00:16:55.749Z,10.38
2019-03-25T00:19:03.790Z,10.36
2019-03-25T00:21:11.838Z,10.32
2019-03-25T00:23:20.565Z,10.29
2019-03-25T00:25:28.672Z,10.27
2019-03-25T00:26:33.389Z,10.29
2019-03-25T00:27:37.878Z,10.25
2019-03-25T00:29:47.060Z,10.18
2019-03-25T00:30:51.736Z,10.23
2019-03-25T00:35:07.169Z,10.27
2019-03-25T00:36:11.559Z,10.26
2019-03-25T00:40:26.825Z,10.20
2019-03-25T00:44:42.546Z,10.15
2019-03-25T00:51:05.994Z,10.05
2019-03-25T00:56:25.836Z,9.93
2019-03-25T00:57:30.503Z,9.93
2019-03-25T01:07:04.980Z,9.74
2019-03-25T01:10:16.803Z,9.74
2019-03-25T01:12:24.864Z,9.64
2019-03-25T01:15:37.898Z,9.66
2019-03-25T01:17:45.900Z,9.69
2019-03-25T01:23:04.770Z,9.57
2019-03-25T01:25:12.759Z,9.49
2019-03-25T01:26:17.177Z,9.52
2019-03-25T01:29:29.484Z,9.51
2019-03-25T01:30:33.995Z,9.53
2019-03-25T01:35:53.795Z,9.48
2019-03-25T01:43:21.040Z,9.47
2019-03-25T01:44:25.497Z,9.44
2019-03-25T01:47:37.873Z,9.35
2019-03-25T01:48:43.205Z,9.29
2019-03-25T01:50:51.218Z,9.30
2019-03-25T01:51:55.637Z,9.27
2019-03-25T01:56:11.420Z,9.23
2019-03-25T01:59:23.017Z,9.24
2019-03-25T02:01:32.144Z,9.18
2019-03-25T02:02:36.522Z,9.20
2019-03-25T02:03:40.905Z,9.20
2019-03-25T02:06:52.548Z,9.21
2019-03-25T02:11:10.913Z,9.17
2019-03-25T02:14:22.595Z,9.13
2019-03-25T02:16:30.575Z,9.09
2019-03-25T02:19:42.189Z,9.03
2019-03-25T02:23:58.180Z,9.05
2019-03-25T02:30:21.784Z,8.93
2019-03-25T02:31:26.185Z,8.96
2019-03-25T02:34:37.773Z,8.95
2019-03-25T02:35:42.289Z,8.95
2019-03-25T02:37:50.302Z,8.94
2019-03-25T02:38:54.687Z,8.94
2019-03-25T02:44:14.195Z,8.83
2019-03-25T02:45:18.560Z,8.75
2019-03-25T02:46:23.005Z,8.70
2019-03-25T02:49:34.787Z,8.78
2019-03-25T02:50:39.523Z,8.76
2019-03-25T02:54:55.010Z,8.74
2019-03-25T02:57:03.009Z,8.66
2019-03-25T03:01:36.726Z,8.68
2019-03-25T03:04:48.913Z,8.67
2019-03-25T03:08:00.518Z,8.60
2019-03-25T03:10:11.636Z,8.59
2019-03-25T03:19:46.763Z,8.59
2019-03-25T03:21:56.002Z,8.52
2019-03-25T03:23:00.417Z,8.56
2019-03-25T03:26:12.411Z,8.54
2019-03-25T03:32:37.748Z,8.61
2019-03-25T03:34:46.373Z,8.61
2019-03-25T03:35:50.999Z,8.57
2019-03-25T03:37:59.069Z,8.60
2019-03-25T03:39:04.199Z,8.61
2019-03-25T03:40:08.897Z,8.64
2019-03-25T03:41:13.327Z,8.62
2019-03-25T03:42:17.725Z,8.55
2019-03-25T03:43:22.148Z,8.54
2019-03-25T03:45:30.145Z,8.50
2019-03-25T03:46:34.545Z,8.49
2019-03-25T03:48:42.529Z,8.50
2019-03-25T03:50:50.555Z,8.48
2019-03-25T03:52:58.649Z,8.52
2019-03-25T03:56:13.581Z,8.51
2019-03-25T03:57:17.318Z,8.53
2019-03-25T03:59:28.407Z,8.50
2019-03-25T04:12:14.751Z,8.63
2019-03-25T04:14:22.854Z,8.57
2019-03-25T04:16:33.404Z,8.59
2019-03-25T04:17:37.865Z,8.57
2019-03-25T04:19:45.905Z,8.55
2019-03-25T04:20:50.334Z,8.56
2019-03-25T04:22:58.423Z,8.55
2019-03-25T04:25:06.777Z,8.54
2019-03-25T04:27:16.264Z,8.59
2019-03-25T04:28:20.776Z,8.61
2019-03-25T04:29:25.510Z,8.66
2019-03-25T04:31:33.613Z,8.67
2019-03-25T04:34:46.201Z,8.65
2019-03-25T04:35:51.487Z,8.64
2019-03-25T04:36:56.174Z,8.64
2019-03-25T04:41:14.118Z,8.68
2019-03-25T04:43:22.109Z,8.67
2019-03-25T04:44:26.516Z,8.70
2019-03-25T04:48:42.512Z,8.72
2019-03-25T04:49:46.924Z,8.73
2019-03-25T04:52:59.539Z,8.73
2019-03-25T04:55:07.649Z,8.75
2019-03-25T04:57:15.661Z,8.76
2019-03-25T05:01:40.045Z,8.76
2019-03-25T05:02:44.453Z,8.72
2019-03-25T05:08:03.333Z,8.75
2019-03-25T05:13:30.410Z,8.75
2019-03-25T05:18:50.397Z,8.74
2019-03-25T05:30:33.374Z,8.73
2019-03-25T05:31:37.779Z,8.73
2019-03-25T05:33:46.493Z,8.74
2019-03-25T05:39:09.053Z,8.75
2019-03-25T05:41:17.053Z,8.71
2019-03-25T05:44:30.072Z,8.70
2019-03-25T05:48:45.361Z,8.72
2019-03-25T05:50:53.309Z,8.70
2019-03-25T05:54:04.886Z,8.67
2019-03-25T05:55:09.351Z,8.64
2019-03-25T05:57:18.323Z,8.66
2019-03-25T06:03:41.208Z,8.74
2019-03-25T06:05:49.151Z,8.69
2019-03-25T06:06:53.533Z,8.69
2019-03-25T06:18:37.877Z,8.88
2019-03-25T06:23:57.339Z,9.04
2019-03-25T06:27:13.981Z,8.95
2019-03-25T06:29:18.987Z,8.98
2019-03-25T06:33:35.829Z,9.08
2019-03-25T06:34:40.203Z,9.15
2019-03-25T06:35:44.569Z,9.17
2019-03-25T06:36:48.936Z,9.13
2019-03-25T06:42:08.219Z,9.11
2019-03-25T06:44:16.184Z,9.07
2019-03-25T06:46:24.190Z,9.32
2019-03-25T06:52:47.092Z,9.47
2019-03-25T06:53:51.510Z,9.46
2019-03-25T06:59:10.394Z,9.60
2019-03-25T07:00:16.309Z,9.71
2019-03-25T07:09:49.555Z,9.37
2019-03-25T07:16:12.927Z,10.14
2019-03-25T07:18:20.915Z,10.27
2019-03-25T07:20:28.949Z,10.27
2019-03-25T07:21:33.354Z,10.31
2019-03-25T07:22:37.878Z,10.24
2019-03-25T07:25:49.564Z,10.02
2019-03-25T07:29:01.217Z,10.14
2019-03-25T07:30:07.577Z,10.10
2019-03-25T07:31:12.013Z,10.05
2019-03-25T07:36:31.106Z,10.40
2019-03-25T07:38:39.096Z,10.18
2019-03-25T07:41:51.707Z,10.43
2019-03-25T07:42:56.117Z,10.58
2019-03-25T07:49:21.316Z,11.66
2019-03-25T07:50:25.717Z,12.21
2019-03-25T07:52:33.747Z,12.70
2019-03-25T07:53:38.110Z,12.51
2019-03-25T07:56:51.659Z,10.89
2019-03-25T07:59:00.179Z,10.88
2019-03-25T08:00:18.855Z,11.77
2019-03-25T08:05:43.272Z,14.71
2019-03-25T08:07:51.332Z,15.42
2019-03-25T08:12:08.705Z,14.60
2019-03-25T08:15:20.576Z,15.31
2019-03-25T08:19:37.043Z,14.71
2019-03-25T08:20:41.508Z,14.48
2019-03-25T08:29:11.460Z,15.41
2019-03-25T08:32:23.058Z,16.16
2019-03-25T08:35:34.691Z,16.55
2019-03-25T08:36:40.332Z,16.99
2019-03-25T08:40:55.560Z,14.02
2019-03-25T08:41:59.986Z,13.43
2019-03-25T08:46:15.253Z,17.72
2019-03-25T08:47:19.716Z,18.40
2019-03-25T08:48:24.079Z,18.89
2019-03-25T08:49:29.498Z,19.15
2019-03-25T08:55:52.784Z,21.12
2019-03-25T08:56:57.181Z,20.72
2019-03-25T08:58:11.578Z,20.20
2019-03-25T09:05:30.417Z,21.88
2019-03-25T09:11:52.859Z,22.66
2019-03-25T09:12:57.307Z,22.05
2019-03-25T09:14:01.714Z,21.45
2019-03-25T09:15:08.157Z,21.54
2019-03-25T09:17:17.065Z,22.88
2019-03-25T09:18:22.048Z,22.33
2019-03-25T09:20:31.077Z,22.56
2019-03-25T09:23:43.046Z,23.68
2019-03-25T09:26:55.048Z,22.30
2019-03-25T09:30:10.969Z,21.84
2019-03-25T09:31:16.470Z,22.46
2019-03-25T09:33:24.448Z,21.34
2019-03-25T09:34:28.852Z,21.38
2019-03-25T09:36:36.977Z,23.10
2019-03-25T09:43:00.456Z,21.48
2019-03-25T09:46:13.411Z,21.39
2019-03-25T09:48:21.494Z,18.75
2019-03-25T09:50:29.671Z,17.72
2019-03-25T09:52:38.849Z,17.58
2019-03-25T09:54:47.244Z,19.79
2019-03-25T09:56:55.481Z,19.68
2019-03-25T10:02:17.881Z,19.32
2019-03-25T10:05:29.576Z,17.84
2019-03-25T10:07:37.592Z,19.41
2019-03-25T10:08:42.010Z,19.72
2019-03-25T10:10:50.061Z,19.38
2019-03-25T10:11:54.704Z,19.36
2019-03-25T10:12:59.102Z,19.54
2019-03-25T10:17:16.757Z,20.33
2019-03-25T10:21:32.361Z,20.26
2019-03-25T10:22:36.989Z,20.29
2019-03-25T10:24:45.056Z,20.23
2019-03-25T10:32:16.025Z,20.02
2019-03-25T10:34:24.428Z,20.55
2019-03-25T10:35:29.039Z,20.90
2019-03-25T10:37:38.094Z,20.91
2019-03-25T10:38:42.691Z,20.45
2019-03-25T10:39:47.104Z,20.05
2019-03-25T10:46:11.649Z,18.54
2019-03-25T10:47:16.055Z,18.32
2019-03-25T10:48:20.505Z,18.27
2019-03-25T10:49:25.175Z,18.15
2019-03-25T10:50:29.873Z,17.92
2019-03-25T10:55:48.746Z,18.31
2019-03-25T11:02:14.971Z,18.17
2019-03-25T11:03:19.406Z,18.27
2019-03-25T11:05:27.484Z,18.55
2019-03-25T11:13:58.348Z,17.12
2019-03-25T11:18:16.505Z,16.22
2019-03-25T11:19:21.151Z,16.15
2019-03-25T11:21:29.209Z,15.93
2019-03-25T11:23:37.226Z,15.45
2019-03-25T11:24:41.606Z,15.31
2019-03-25T11:25:46.008Z,15.26
2019-03-25T11:26:50.407Z,15.30
2019-03-25T11:29:04.410Z,15.73
2019-03-25T11:31:12.014Z,15.53
2019-03-25T11:32:16.404Z,15.56
2019-03-25T11:34:25.017Z,15.39
2019-03-25T11:37:36.670Z,15.35
2019-03-25T11:39:44.781Z,15.83
2019-03-25T11:40:49.237Z,15.86
2019-03-25T11:41:53.780Z,15.65
2019-03-25T11:45:07.996Z,15.47
2019-03-25T11:46:12.499Z,15.51
2019-03-25T11:48:20.607Z,15.36
2019-03-25T11:49:25.025Z,15.30
2019-03-25T11:51:38.485Z,14.78
2019-03-25T11:55:55.679Z,14.64
2019-03-25T11:58:03.691Z,14.46
2019-03-25T11:59:08.081Z,14.55
2019-03-25T12:00:12.900Z,14.81
2019-03-25T12:04:28.156Z,14.90
2019-03-25T12:12:58.882Z,16.58
2019-03-25T12:18:19.302Z,16.56
2019-03-25T12:20:27.295Z,16.14
2019-03-25T12:22:35.585Z,16.25
2019-03-25T12:24:43.610Z,15.97
2019-03-25T12:26:51.683Z,15.95
2019-03-25T12:27:56.080Z,16.15
2019-03-25T12:32:14.008Z,16.07
2019-03-25T12:34:22.981Z,16.14
2019-03-25T12:35:27.705Z,16.04
2019-03-25T12:39:42.954Z,16.38
2019-03-25T12:40:47.465Z,16.15
2019-03-25T12:41:52.903Z,16.09
2019-03-25T12:44:00.928Z,16.23
2019-03-25T12:46:12.322Z,16.99
2019-03-25T12:49:24.627Z,17.45
2019-03-25T12:52:36.409Z,17.20
2019-03-25T12:54:44.418Z,16.86
2019-03-25T12:56:52.534Z,16.33
2019-03-25T13:00:06.216Z,16.45
2019-03-25T13:05:30.943Z,16.38
2019-03-25T13:06:35.365Z,16.16
2019-03-25T13:07:39.767Z,16.17
2019-03-25T13:10:52.276Z,16.40
2019-03-25T13:14:05.572Z,15.96
2019-03-25T13:18:20.873Z,16.00
2019-03-25T13:19:25.389Z,15.99
2019-03-25T13:22:37.008Z,15.95
2019-03-25T13:23:41.418Z,15.79
2019-03-25T13:30:06.805Z,15.60
2019-03-25T13:31:11.226Z,15.47
2019-03-25T13:33:19.220Z,15.88
2019-03-25T13:35:27.221Z,16.06
2019-03-25T13:37:35.187Z,15.60
2019-03-25T13:39:43.250Z,15.91
2019-03-25T13:41:51.541Z,16.30
2019-03-25T13:42:55.941Z,16.15
2019-03-25T13:47:12.801Z,16.94
2019-03-25T13:48:17.282Z,17.03
2019-03-25T13:53:36.094Z,16.91
2019-03-25T13:58:54.910Z,15.96
2019-03-25T14:02:06.604Z,15.62
2019-03-25T14:07:25.464Z,14.97
2019-03-25T14:08:29.828Z,14.84
2019-03-25T14:11:41.441Z,14.77
2019-03-25T14:12:45.817Z,14.99
2019-03-25T14:13:50.301Z,15.17
2019-03-25T14:15:58.399Z,15.47
2019-03-25T14:17:02.827Z,15.63
2019-03-25T14:18:07.304Z,15.83
2019-03-25T14:20:15.259Z,15.80
2019-03-25T14:21:19.667Z,15.79
2019-03-25T14:29:49.321Z,15.97
2019-03-25T14:37:15.521Z,16.02
2019-03-25T14:38:19.938Z,16.01
2019-03-25T14:39:24.336Z,15.99
2019-03-25T14:40:28.767Z,15.79
2019-03-25T14:41:33.265Z,15.67
2019-03-25T14:44:44.844Z,15.59
2019-03-25T14:45:49.237Z,15.59
2019-03-25T14:57:33.384Z,15.54
2019-03-25T15:00:45.029Z,16.08
2019-03-25T15:01:49.442Z,16.05
2019-03-25T15:08:11.971Z,15.75
2019-03-25T15:14:35.260Z,15.53
2019-03-25T15:16:43.288Z,15.63
2019-03-25T15:17:47.750Z,15.66
2019-03-25T15:18:52.146Z,15.65
2019-03-25T15:23:07.373Z,15.87
2019-03-25T15:24:11.771Z,15.93
2019-03-25T15:25:16.202Z,15.94
2019-03-25T15:26:20.624Z,15.93
2019-03-25T15:29:32.268Z,15.44
2019-03-25T15:33:47.636Z,15.35
2019-03-25T15:35:55.620Z,15.43
2019-03-25T15:40:13.302Z,15.28
2019-03-25T15:42:21.518Z,15.21
2019-03-25T15:44:30.519Z,15.15
2019-03-25T15:47:45.819Z,15.06
2019-03-25T15:53:03.541Z,14.94
2019-03-25T15:55:11.835Z,14.68
2019-03-25T15:56:18.046Z,14.58
2019-03-25T16:00:33.289Z,14.61
2019-03-25T16:02:41.367Z,14.55
2019-03-25T16:03:45.773Z,14.56
2019-03-25T16:04:50.168Z,14.71
2019-03-25T16:05:54.557Z,14.70
2019-03-25T16:06:59.556Z,14.59
2019-03-25T16:08:03.961Z,14.58
2019-03-25T16:09:08.552Z,14.60
2019-03-25T16:13:26.962Z,14.31
2019-03-25T16:14:31.721Z,14.32
2019-03-25T16:22:00.754Z,13.92
2019-03-25T16:23:06.271Z,13.87
2019-03-25T16:26:21.032Z,13.72
2019-03-25T16:29:32.660Z,13.53
2019-03-25T16:31:40.669Z,13.35
2019-03-25T16:33:48.945Z,13.37
2019-03-25T16:38:04.204Z,13.23
2019-03-25T16:46:35.877Z,12.82
2019-03-25T16:48:43.873Z,12.78
2019-03-25T16:50:51.965Z,12.67
2019-03-25T16:51:56.477Z,12.63
2019-03-25T16:54:05.552Z,12.53
2019-03-25T16:58:21.531Z,12.41
2019-03-25T16:59:26.862Z,12.39
2019-03-25T17:04:45.644Z,12.23
2019-03-25T17:07:57.323Z,12.12
2019-03-25T17:09:01.747Z,12.08
2019-03-25T17:10:07.870Z,12.03
2019-03-25T17:12:16.011Z,12.07
2019-03-25T17:14:24.316Z,12.07
2019-03-25T17:18:39.709Z,11.96
2019-03-25T17:19:44.108Z,11.97
2019-03-25T17:23:59.327Z,11.87
2019-03-25T17:25:05.537Z,11.84
2019-03-25T17:28:17.236Z,11.73
2019-03-25T17:29:21.854Z,11.71
2019-03-25T17:31:29.883Z,11.67
2019-03-25T17:32:34.370Z,11.66
2019-03-25T17:35:45.915Z,11.60
2019-03-25T17:37:53.918Z,11.53
2019-03-25T17:41:05.541Z,11.41
2019-03-25T17:43:13.779Z,11.36
2019-03-25T17:44:19.144Z,11.32
2019-03-25T17:45:23.509Z,11.32
2019-03-25T17:48:35.372Z,11.22
2019-03-25T17:54:02.033Z,11.10
2019-03-25T17:58:17.756Z,11.06
2019-03-25T18:01:49.971Z,11.06
2019-03-25T18:02:54.390Z,11.06
2019-03-25T18:06:06.417Z,10.93
2019-03-25T18:07:10.820Z,10.92
2019-03-25T18:08:15.845Z,10.96
2019-03-25T18:15:42.339Z,10.91
2019-03-25T18:16:46.964Z,10.91
2019-03-25T18:17:51.381Z,10.91
2019-03-25T18:20:03.053Z,10.89
2019-03-25T18:22:11.284Z,10.89
2019-03-25T18:23:15.636Z,10.85
2019-03-25T18:26:27.234Z,10.82
2019-03-25T18:28:35.465Z,10.79
2019-03-25T18:29:40.769Z,10.78
2019-03-25T18:30:45.159Z,10.77
2019-03-25T18:31:49.548Z,10.77
2019-03-25T18:32:53.937Z,10.75
2019-03-25T18:36:05.975Z,10.72
2019-03-25T18:45:40.486Z,10.61
2019-03-25T18:50:59.356Z,10.59
2019-03-25T18:53:07.395Z,10.56
2019-03-25T18:54:12.031Z,10.51
2019-03-25T18:59:32.840Z,10.54
2019-03-25T19:01:41.108Z,10.52
2019-03-25T19:03:49.358Z,10.51
2019-03-25T19:07:02.414Z,10.47
2019-03-25T19:12:25.554Z,10.44
2019-03-25T19:15:37.165Z,10.43
2019-03-25T19:16:41.771Z,10.42
2019-03-25T19:27:19.575Z,10.35
2019-03-25T19:29:27.834Z,10.35
2019-03-25T19:31:36.134Z,10.33
2019-03-25T19:33:44.440Z,10.32
2019-03-25T19:38:16.415Z,10.28
2019-03-25T19:39:20.893Z,10.27
2019-03-25T19:40:25.579Z,10.26
2019-03-25T19:41:32.531Z,10.25
2019-03-25T19:45:48.037Z,10.23
2019-03-25T19:46:52.634Z,10.23
2019-03-25T19:47:57.260Z,10.22
2019-03-25T19:49:01.743Z,10.20
2019-03-25T19:50:07.489Z,10.21
2019-03-25T19:56:30.415Z,10.17
2019-03-25T19:58:38.633Z,10.15
2019-03-25T20:00:46.834Z,10.14
2019-03-25T20:02:54.833Z,10.14
2019-03-25T20:03:59.490Z,10.13
2019-03-25T20:06:10.025Z,10.11
2019-03-25T20:10:31.634Z,10.11
2019-03-25T20:12:40.591Z,10.10
2019-03-25T20:13:44.991Z,10.10
2019-03-25T20:19:04.695Z,10.04
2019-03-25T20:22:17.358Z,10.04
2019-03-25T20:24:25.377Z,10.02
2019-03-25T20:27:37.056Z,10.00
2019-03-25T20:28:41.730Z,10.00
2019-03-25T20:29:46.236Z,9.99
2019-03-25T20:30:51.002Z,9.97
2019-03-25T20:31:55.618Z,9.96
2019-03-25T20:34:10.942Z,9.95
2019-03-25T20:36:14.101Z,9.96
2019-03-25T20:37:19.486Z,9.95
2019-03-25T20:42:40.199Z,9.93
2019-03-25T20:43:44.977Z,9.92
2019-03-25T20:46:56.689Z,9.90
2019-03-25T20:48:01.343Z,9.89
2019-03-25T20:51:13.510Z,9.87
2019-03-25T20:54:25.486Z,9.84
2019-03-25T20:55:30.015Z,9.82
2019-03-25T20:56:34.483Z,9.82
2019-03-25T21:00:51.628Z,9.80
2019-03-25T21:01:57.268Z,9.79
2019-03-25T21:05:09.200Z,9.77
2019-03-25T21:08:21.194Z,9.75
2019-03-25T21:09:27.384Z,9.73
2019-03-25T21:10:32.574Z,9.73
2019-03-25T21:11:37.035Z,9.73
2019-03-25T21:12:41.719Z,9.72
2019-03-25T21:16:57.171Z,9.72
2019-03-25T21:22:17.483Z,9.68
2019-03-25T21:27:37.289Z,9.67
2019-03-25T21:28:41.832Z,9.65
2019-03-25T21:30:50.625Z,9.64
2019-03-25T21:31:55.340Z,9.62
2019-03-25T21:32:59.762Z,9.63
2019-03-25T21:35:08.407Z,9.55
2019-03-25T21:36:14.948Z,9.60
2019-03-25T21:37:20.210Z,9.60
2019-03-25T21:40:33.079Z,9.58
2019-03-25T21:41:37.776Z,9.58
2019-03-25T21:44:49.355Z,9.55
2019-03-25T21:46:57.403Z,9.53
2019-03-25T21:48:02.010Z,9.53
2019-03-25T21:59:45.685Z,9.51
2019-03-25T22:02:57.364Z,9.51
2019-03-25T22:04:02.742Z,9.50
2019-03-25T22:07:14.601Z,9.49
2019-03-25T22:08:19.013Z,9.49
2019-03-25T22:12:35.648Z,9.47
2019-03-25T22:15:47.366Z,9.44
2019-03-25T22:16:51.963Z,9.42
2019-03-25T22:22:14.902Z,9.36
2019-03-25T22:23:20.636Z,9.35
2019-03-25T22:30:47.804Z,9.31
2019-03-25T22:32:55.821Z,9.31
2019-03-25T22:34:00.236Z,9.30
2019-03-25T22:38:17.148Z,9.28
2019-03-25T22:39:21.561Z,9.30
2019-03-25T22:40:25.977Z,9.29
2019-03-25T22:43:37.565Z,9.28
2019-03-25T22:46:49.978Z,9.27
2019-03-25T22:50:01.663Z,9.27
2019-03-25T22:56:24.329Z,9.27
2019-03-25T22:57:28.697Z,9.26
2019-03-25T22:59:36.824Z,9.26
2019-03-25T23:00:41.253Z,9.25
2019-03-25T23:01:45.761Z,9.25
2019-03-25T23:02:50.170Z,9.25
2019-03-25T23:06:02.990Z,9.24
2019-03-25T23:08:11.013Z,9.22
2019-03-25T23:10:18.999Z,9.23
2019-03-25T23:13:30.590Z,9.21
2019-03-25T23:18:50.230Z,9.20
2019-03-25T23:20:58.213Z,9.19
2019-03-25T23:24:09.863Z,9.16
2019-03-25T23:32:42.171Z,9.13
2019-03-25T23:34:50.173Z,9.13
2019-03-25T23:36:58.136Z,9.13
2019-03-25T23:38:02.523Z,9.13
2019-03-25T23:41:14.574Z,9.12
2019-03-25T23:43:23.503Z,9.12
2019-03-25T23:46:36.007Z,9.10
2019-03-25T23:48:44.734Z,9.11
2019-03-25T23:54:03.600Z,9.09
2019-03-25T23:56:12.621Z,9.08
